Intercession City, Florida
Current Conditions -  °F | °C
As of 10:50 AM on Thursday 29 Jan 2015 (Local Time) from KISM Reporting Station
Clear Clear  
Wind Chill: 18°   Ceiling: Unl
Heat Index: 18°   Visibility: 10mi
Dew Point:   Wind: 0mph
Humidity: 56%   Direction: NA
Pressure: 30.33"   Gusts: NA
Location:  28.26°N, 81.51°W
Report Text: KISM 291550Z 00000KT 10SM SKC 18/09 A3033
Loading
Personal Weather Stations






























Interactive Weather Map New forecast layout! Learn more

10-Day Weather Forecast

Advertisements
Track Severe Weather on mobile